Time;durP1;ratioP1;P1;durP2;ratioP2;P2;SDS_P1;SDS_P2;PMS_P1;PMS_P2;Temp;Humidity;BMP_temperature;BMP_pressure;BME280_temperature;BME280_humidity;BME280_pressure;Samples;Min_cycle;Max_cycle;Signal;HPM_P1;HPM_P2
2022/01/27 00:07:41;;;;;;;;;96.25;71.00;;;;;;;;5095755;28;8879;-69
2022/01/27 00:12:31;;;;;;;;;82.25;62.25;;;;;;;;5095255;28;8810;-70
2022/01/27 00:15:08;;;;;;;;;94.67;70.33;;;;;;;;5094105;28;9584;-69
2022/01/27 00:17:39;;;;;;;;;85.50;67.50;;;;;;;;5094279;28;11575;-72
2022/01/27 00:20:04;;;;;;;;;87.50;65.00;;;;;;;;5093913;28;8797;-72
2022/01/27 00:22:29;;;;;;;;;85.25;64.75;;;;;;;;5095667;28;8841;-72
2022/01/27 00:24:55;;;;;;;;;91.67;70.33;;;;;;;;5095736;28;8857;-72
2022/01/27 00:27:20;;;;;;;;;83.33;63.67;;;;;;;;5081440;28;9698;-72
2022/01/27 00:29:45;;;;;;;;;95.33;75.33;;;;;;;;5094390;28;11667;-72
2022/01/27 00:32:11;;;;;;;;;86.33;66.00;;;;;;;;5094369;28;8832;-72
2022/01/27 00:34:36;;;;;;;;;90.33;71.33;;;;;;;;5095563;28;9624;-72
2022/01/27 00:37:01;;;;;;;;;91.67;71.67;;;;;;;;5095387;28;8942;-70
2022/01/27 00:39:26;;;;;;;;;92.00;70.33;;;;;;;;5095010;28;12308;-70
2022/01/27 00:41:52;;;;;;;;;78.33;56.33;;;;;;;;5095031;28;10498;-70
2022/01/27 00:44:17;;;;;;;;;82.33;61.67;;;;;;;;5094831;28;8918;-70
2022/01/27 00:46:43;;;;;;;;;89.67;69.00;;;;;;;;5093610;28;8845;-70
2022/01/27 00:49:08;;;;;;;;;83.25;64.25;;;;;;;;5093450;28;8856;-70
2022/01/27 00:51:37;;;;;;;;;90.67;69.00;;;;;;;;5094909;28;8841;-70
2022/01/27 00:54:19;;;;;;;;;89.00;69.25;;;;;;;;5094665;28;11560;-70
2022/01/27 00:56:54;;;;;;;;;83.25;64.25;;;;;;;;5092978;28;8831;-70
2022/01/27 00:59:36;;;;;;;;;81.25;57.25;;;;;;;;5095191;28;8782;-70
2022/01/27 01:04:34;;;;;;;;;86.00;67.75;;;;;;;;5094919;28;9604;-70
2022/01/27 01:07:00;;;;;;;;;84.50;62.75;;;;;;;;5094560;28;8826;-70
2022/01/27 01:14:55;;;;;;;;;91.00;67.25;;;;;;;;5098276;28;8901;-70
2022/01/27 01:32:59;;;;;;;;;83.00;65.75;;;;;;;;5098151;28;8812;-70
2022/01/27 01:35:39;;;;;;;;;92.00;69.50;;;;;;;;5098193;28;8895;-70
2022/01/27 01:38:04;;;;;;;;;83.50;64.50;;;;;;;;5085792;28;8797;-69
2022/01/27 01:40:30;;;;;;;;;94.50;70.75;;;;;;;;5096656;28;8936;-69
2022/01/27 01:42:55;;;;;;;;;89.00;67.50;;;;;;;;5097750;28;8832;-69
2022/01/27 01:45:21;;;;;;;;;89.33;67.00;;;;;;;;5098110;28;8794;-69
2022/01/27 01:47:47;;;;;;;;;95.50;74.75;;;;;;;;5097926;28;11719;-69
2022/01/27 01:50:13;;;;;;;;;96.25;75.75;;;;;;;;5096033;28;8839;-70
2022/01/27 01:52:39;;;;;;;;;93.00;70.75;;;;;;;;5097848;28;8892;-70
2022/01/27 01:55:06;;;;;;;;;94.75;68.75;;;;;;;;5097742;28;8770;-70
2022/01/27 01:57:31;;;;;;;;;93.75;70.00;;;;;;;;5097436;28;8840;-70
2022/01/27 01:59:57;;;;;;;;;92.33;70.67;;;;;;;;5097877;28;8802;-70
2022/01/27 02:02:23;;;;;;;;;98.00;77.75;;;;;;;;5097639;28;11552;-69
2022/01/27 02:04:48;;;;;;;;;88.00;63.00;;;;;;;;5097674;28;8820;-69
2022/01/27 02:07:30;;;;;;;;;95.00;69.25;;;;;;;;5097620;28;8822;-70
2022/01/27 02:18:06;;;;;;;;;103.50;83.75;;;;;;;;5097226;28;8809;-69
2022/01/27 02:20:32;;;;;;;;;103.25;88.75;;;;;;;;5095568;28;8809;-70
2022/01/27 02:22:58;;;;;;;;;110.50;96.50;;;;;;;;5095299;28;8821;-69
2022/01/27 02:25:24;;;;;;;;;120.67;112.33;;;;;;;;5097288;28;8877;-69
2022/01/27 02:27:56;;;;;;;;;113.00;97.50;;;;;;;;5081572;28;8829;-69
2022/01/27 02:30:22;;;;;;;;;103.80;92.80;;;;;;;;5097180;28;8911;-69
2022/01/27 02:32:52;;;;;;;;;115.80;103.00;;;;;;;;5095617;28;9317;-70
2022/01/27 02:35:17;;;;;;;;;117.67;109.00;;;;;;;;5097107;28;8770;-70
2022/01/27 02:37:43;;;;;;;;;104.50;96.25;;;;;;;;5096914;28;11710;-69
2022/01/27 02:40:10;;;;;;;;;110.50;103.75;;;;;;;;5095758;28;8848;-70
2022/01/27 02:42:36;;;;;;;;;121.20;107.20;;;;;;;;5096628;28;8809;-70
2022/01/27 02:45:12;;;;;;;;;106.25;94.50;;;;;;;;5095398;28;8853;-69
2022/01/27 02:47:37;;;;;;;;;97.00;75.50;;;;;;;;5096700;28;8882;-69
2022/01/27 02:50:03;;;;;;;;;108.50;95.75;;;;;;;;5095099;28;11682;-69
2022/01/27 02:52:28;;;;;;;;;96.33;77.00;;;;;;;;5096793;28;9584;-70
2022/01/27 02:54:54;;;;;;;;;98.00;74.75;;;;;;;;5095484;28;8889;-69
2022/01/27 02:57:20;;;;;;;;;102.33;84.33;;;;;;;;5095001;28;8838;-69
2022/01/27 02:59:45;;;;;;;;;100.80;84.00;;;;;;;;5096703;28;8899;-69
2022/01/27 03:02:11;;;;;;;;;106.67;86.67;;;;;;;;5096707;28;8786;-69
2022/01/27 03:04:36;;;;;;;;;93.25;70.75;;;;;;;;5095193;28;8852;-70
2022/01/27 03:07:03;;;;;;;;;97.50;76.25;;;;;;;;5096536;28;8857;-70
2022/01/27 03:09:28;;;;;;;;;104.40;81.60;;;;;;;;5096434;28;8771;-69
2022/01/27 03:11:58;;;;;;;;;102.75;87.50;;;;;;;;5096575;28;8817;-69
2022/01/27 03:14:24;;;;;;;;;101.80;86.80;;;;;;;;5096215;28;8967;-69
2022/01/27 03:16:52;;;;;;;;;95.50;77.75;;;;;;;;5096834;28;8904;-70
2022/01/27 03:19:17;;;;;;;;;90.00;70.50;;;;;;;;5094014;28;8835;-70
2022/01/27 03:21:43;;;;;;;;;95.67;75.67;;;;;;;;5096371;28;8829;-70
2022/01/27 03:24:09;;;;;;;;;101.25;86.25;;;;;;;;5094981;28;8805;-70
2022/01/27 03:26:34;;;;;;;;;105.75;93.25;;;;;;;;5090009;28;8807;-70
2022/01/27 03:29:00;;;;;;;;;102.33;88.67;;;;;;;;5088773;28;11609;-69
2022/01/27 03:31:26;;;;;;;;;107.60;100.40;;;;;;;;5096152;28;9814;-69
2022/01/27 03:33:51;;;;;;;;;104.00;93.75;;;;;;;;5095444;28;8884;-69
2022/01/27 03:36:17;;;;;;;;;102.50;89.00;;;;;;;;5094634;28;9607;-69
2022/01/27 03:38:42;;;;;;;;;107.00;95.50;;;;;;;;5096516;28;8806;-69
2022/01/27 03:41:09;;;;;;;;;103.67;90.67;;;;;;;;5095845;28;8891;-70
2022/01/27 03:43:35;;;;;;;;;121.40;111.20;;;;;;;;5095999;28;8932;-69
2022/01/27 03:46:00;;;;;;;;;121.60;110.40;;;;;;;;5094460;28;8859;-69
2022/01/27 03:48:26;;;;;;;;;109.75;96.25;;;;;;;;5096187;28;8852;-69
2022/01/27 03:50:51;;;;;;;;;126.33;115.33;;;;;;;;5095658;28;8817;-69
2022/01/27 03:53:16;;;;;;;;;116.75;110.50;;;;;;;;5096125;28;9573;-70
2022/01/27 03:55:42;;;;;;;;;111.67;99.67;;;;;;;;5095958;28;8793;-69
2022/01/27 03:58:08;;;;;;;;;113.60;105.60;;;;;;;;5095514;28;8841;-69
2022/01/27 04:00:34;;;;;;;;;113.67;106.00;;;;;;;;5095826;28;8971;-70
2022/01/27 04:03:05;;;;;;;;;105.50;93.25;;;;;;;;5096043;28;8802;-69
2022/01/27 04:05:42;;;;;;;;;120.00;114.25;;;;;;;;5081173;28;8798;-70
2022/01/27 04:08:12;;;;;;;;;129.40;121.40;;;;;;;;5095683;28;8818;-69
2022/01/27 04:10:39;;;;;;;;;110.00;100.00;;;;;;;;5096086;28;8786;-69
2022/01/27 04:13:05;;;;;;;;;102.20;85.80;;;;;;;;5095197;28;8809;-70
2022/01/27 04:15:30;;;;;;;;;102.75;81.50;;;;;;;;5095828;28;8776;-70
2022/01/27 04:17:55;;;;;;;;;103.50;90.25;;;;;;;;5095365;28;12374;-69
2022/01/27 04:20:21;;;;;;;;;113.33;105.00;;;;;;;;5092371;28;8790;-70
2022/01/27 04:22:46;;;;;;;;;101.00;87.00;;;;;;;;5095509;28;9612;-70
2022/01/27 04:25:12;;;;;;;;;106.67;94.33;;;;;;;;5095727;28;8955;-70
2022/01/27 04:27:41;;;;;;;;;103.00;87.00;;;;;;;;5081538;28;8836;-70
2022/01/27 04:30:11;;;;;;;;;99.80;86.40;;;;;;;;5095658;28;8782;-69
2022/01/27 04:32:43;;;;;;;;;95.50;75.25;;;;;;;;5095419;28;8859;-70
2022/01/27 04:35:13;;;;;;;;;104.00;86.00;;;;;;;;5095553;28;8805;-69
2022/01/27 04:37:43;;;;;;;;;100.50;85.75;;;;;;;;5095196;28;8838;-70
2022/01/27 04:40:14;;;;;;;;;102.25;86.00;;;;;;;;5095318;28;12523;-69
2022/01/27 04:45:10;;;;;;;;;110.00;97.60;;;;;;;;5093317;28;8899;-70
2022/01/27 04:47:41;;;;;;;;;114.25;107.50;;;;;;;;5093734;28;8830;-69
2022/01/27 04:50:07;;;;;;;;;107.60;101.40;;;;;;;;5093354;28;8802;-70
2022/01/27 04:52:36;;;;;;;;;96.25;70.50;;;;;;;;5095507;28;8814;-69
2022/01/27 04:55:10;;;;;;;;;111.00;104.00;;;;;;;;5093554;28;8818;-69
2022/01/27 04:57:39;;;;;;;;;106.50;96.50;;;;;;;;5093214;28;8794;-70
2022/01/27 05:00:04;;;;;;;;;103.50;93.75;;;;;;;;5093436;28;9265;-70
2022/01/27 05:02:41;;;;;;;;;97.00;79.00;;;;;;;;5095115;28;8782;-69
2022/01/27 05:05:07;;;;;;;;;108.00;102.60;;;;;;;;5094657;28;8790;-70
2022/01/27 05:07:32;;;;;;;;;112.50;105.50;;;;;;;;5095213;28;8842;-69
2022/01/27 05:10:02;;;;;;;;;104.33;93.67;;;;;;;;5094729;28;8879;-69
2022/01/27 05:14:58;;;;;;;;;95.00;76.00;;;;;;;;5094838;28;8820;-69
2022/01/27 05:17:24;;;;;;;;;103.80;90.40;;;;;;;;5094869;28;8821;-70
2022/01/27 05:19:50;;;;;;;;;107.00;102.50;;;;;;;;5092576;28;8936;-71
2022/01/27 05:22:16;;;;;;;;;104.00;91.00;;;;;;;;5094731;28;8798;-72
2022/01/27 05:24:41;;;;;;;;;103.00;91.00;;;;;;;;5094793;28;8827;-72
2022/01/27 05:27:07;;;;;;;;;106.75;97.75;;;;;;;;5082628;28;8934;-72
2022/01/27 05:29:32;;;;;;;;;110.00;98.75;;;;;;;;5091771;28;8837;-72
2022/01/27 05:31:57;;;;;;;;;98.67;84.00;;;;;;;;5094972;28;8857;-72
2022/01/27 05:34:22;;;;;;;;;100.25;86.50;;;;;;;;5093089;28;8856;-72
2022/01/27 05:36:48;;;;;;;;;111.00;99.00;;;;;;;;5094721;28;8935;-69
2022/01/27 05:39:13;;;;;;;;;93.33;72.67;;;;;;;;5093083;28;8842;-70
2022/01/27 05:41:38;;;;;;;;;102.25;87.00;;;;;;;;5092759;28;11652;-70
2022/01/27 05:44:04;;;;;;;;;96.67;78.67;;;;;;;;5092819;28;8872;-69
2022/01/27 05:46:29;;;;;;;;;103.00;81.75;;;;;;;;5094520;28;8833;-69
2022/01/27 05:48:55;;;;;;;;;105.33;90.33;;;;;;;;5094340;28;8917;-69
2022/01/27 05:51:20;;;;;;;;;95.75;72.25;;;;;;;;5094340;28;8805;-69
2022/01/27 05:53:46;;;;;;;;;100.25;78.50;;;;;;;;5094282;28;8844;-70
2022/01/27 05:56:11;;;;;;;;;99.75;83.50;;;;;;;;5093656;28;8894;-69
2022/01/27 05:58:36;;;;;;;;;90.25;70.75;;;;;;;;5091283;28;10097;-69
2022/01/27 06:01:02;;;;;;;;;89.75;71.00;;;;;;;;5091783;28;8969;-72
2022/01/27 06:03:27;;;;;;;;;93.75;74.25;;;;;;;;5094008;28;8836;-72
2022/01/27 06:05:52;;;;;;;;;91.50;75.75;;;;;;;;5095470;28;8877;-72
2022/01/27 06:08:17;;;;;;;;;105.75;95.50;;;;;;;;5097373;28;8865;-72
2022/01/27 06:10:43;;;;;;;;;91.00;73.00;;;;;;;;5097648;28;8939;-70
2022/01/27 06:13:08;;;;;;;;;115.75;110.25;;;;;;;;5096949;28;11632;-69
2022/01/27 06:15:33;;;;;;;;;103.25;93.25;;;;;;;;5095736;28;8814;-70
2022/01/27 06:17:59;;;;;;;;;98.67;79.33;;;;;;;;5094391;28;8964;-69
2022/01/27 06:20:24;;;;;;;;;96.33;72.67;;;;;;;;5095952;28;8851;-69
2022/01/27 06:22:53;;;;;;;;;99.75;85.00;;;;;;;;5095175;28;8927;-69
2022/01/27 06:25:18;;;;;;;;;98.75;81.50;;;;;;;;5095689;28;8911;-69
2022/01/27 06:27:44;;;;;;;;;89.33;68.67;;;;;;;;5096412;28;11608;-69
2022/01/27 06:30:11;;;;;;;;;99.25;85.75;;;;;;;;5093861;28;9969;-69
2022/01/27 06:32:36;;;;;;;;;95.67;78.33;;;;;;;;5097492;28;8790;-71
2022/01/27 06:35:04;;;;;;;;;95.75;76.00;;;;;;;;5096625;28;11624;-72
2022/01/27 06:37:31;;;;;;;;;112.75;98.75;;;;;;;;5097178;28;8802;-69
2022/01/27 06:39:56;;;;;;;;;97.75;79.50;;;;;;;;5097145;28;8794;-69
2022/01/27 06:42:21;;;;;;;;;100.00;87.50;;;;;;;;5093113;28;8809;-71
2022/01/27 06:44:46;;;;;;;;;105.25;92.25;;;;;;;;5095885;28;8837;-70
2022/01/27 06:47:12;;;;;;;;;96.50;79.50;;;;;;;;5096372;28;8924;-69
2022/01/27 06:49:37;;;;;;;;;103.50;89.50;;;;;;;;5098720;28;8787;-69
2022/01/27 06:52:03;;;;;;;;;100.75;81.50;;;;;;;;5096793;28;8833;-69
2022/01/27 06:54:28;;;;;;;;;93.50;77.00;;;;;;;;5099568;28;8997;-69
2022/01/27 06:56:54;;;;;;;;;97.50;78.50;;;;;;;;5095433;28;8834;-69
2022/01/27 06:59:19;;;;;;;;;101.40;79.60;;;;;;;;5096817;28;8798;-69
2022/01/27 07:01:45;;;;;;;;;95.00;77.75;;;;;;;;5096617;28;8829;-70
2022/01/27 07:04:10;;;;;;;;;97.25;73.25;;;;;;;;5096661;28;8825;-70
2022/01/27 07:06:36;;;;;;;;;97.25;74.00;;;;;;;;5096366;28;8837;-69
2022/01/27 07:09:02;;;;;;;;;87.25;67.25;;;;;;;;5095021;28;8805;-69
2022/01/27 07:11:28;;;;;;;;;90.50;68.75;;;;;;;;5095875;28;8810;-71
2022/01/27 07:13:53;;;;;;;;;80.67;62.33;;;;;;;;5096522;28;8806;-71
2022/01/27 07:16:18;;;;;;;;;101.00;80.75;;;;;;;;5094818;28;9683;-71
2022/01/27 07:18:44;;;;;;;;;87.75;68.00;;;;;;;;5095207;28;8983;-71
2022/01/27 07:21:09;;;;;;;;;84.00;68.00;;;;;;;;5091731;28;8919;-71
2022/01/27 07:23:35;;;;;;;;;102.00;85.50;;;;;;;;5096416;28;8912;-71
2022/01/27 07:26:00;;;;;;;;;99.00;83.25;;;;;;;;5094708;28;8798;-70
2022/01/27 07:28:25;;;;;;;;;89.00;68.00;;;;;;;;5084209;28;8810;-69
2022/01/27 07:30:51;;;;;;;;;98.00;77.00;;;;;;;;5096334;28;8809;-69
2022/01/27 07:33:18;;;;;;;;;88.25;67.75;;;;;;;;5096629;28;8829;-69
2022/01/27 07:35:43;;;;;;;;;96.50;76.25;;;;;;;;5096343;28;8809;-70
2022/01/27 07:38:09;;;;;;;;;102.50;85.75;;;;;;;;5096586;28;8817;-70
2022/01/27 07:40:34;;;;;;;;;95.75;74.00;;;;;;;;5096369;28;8801;-70
2022/01/27 07:43:00;;;;;;;;;114.50;105.75;;;;;;;;5094447;28;9278;-70
2022/01/27 07:45:25;;;;;;;;;110.67;102.33;;;;;;;;5094802;28;8824;-70
2022/01/27 07:47:50;;;;;;;;;97.50;79.50;;;;;;;;5096281;28;9580;-70
2022/01/27 07:50:16;;;;;;;;;115.67;105.33;;;;;;;;5095815;28;8817;-69
2022/01/27 07:52:41;;;;;;;;;103.50;87.75;;;;;;;;5096175;28;8883;-70
2022/01/27 07:55:07;;;;;;;;;108.75;96.00;;;;;;;;5095872;28;8963;-70
2022/01/27 07:57:33;;;;;;;;;94.00;77.20;;;;;;;;5094340;28;8821;-70
2022/01/27 07:59:58;;;;;;;;;101.00;85.00;;;;;;;;5095775;28;8830;-70
2022/01/27 08:02:23;;;;;;;;;89.75;67.75;;;;;;;;5095890;28;8814;-70
2022/01/27 08:04:49;;;;;;;;;83.00;65.33;;;;;;;;5095801;28;8806;-71
2022/01/27 08:07:14;;;;;;;;;82.67;65.33;;;;;;;;5095876;28;8845;-70
2022/01/27 08:09:39;;;;;;;;;88.75;72.25;;;;;;;;5095794;28;8798;-70
2022/01/27 08:12:05;;;;;;;;;88.67;69.67;;;;;;;;5095586;28;8838;-70
2022/01/27 08:14:30;;;;;;;;;100.67;84.67;;;;;;;;5095344;28;8852;-70
2022/01/27 08:16:55;;;;;;;;;99.00;84.33;;;;;;;;5093733;28;8924;-70
2022/01/27 08:19:21;;;;;;;;;88.67;71.00;;;;;;;;5093132;28;8826;-70
2022/01/27 08:21:46;;;;;;;;;101.25;86.25;;;;;;;;5091739;28;8848;-70
2022/01/27 08:24:12;;;;;;;;;87.00;69.75;;;;;;;;5094686;28;8798;-70
2022/01/27 08:26:43;;;;;;;;;92.00;69.00;;;;;;;;5093672;28;8842;-70
2022/01/27 08:29:35;;;;;;;;;97.00;78.50;;;;;;;;5095076;28;10953;-70
2022/01/27 08:31:59;;;;;;;;;97.20;79.80;;;;;;;;5082971;28;8770;-70
2022/01/27 08:34:31;;;;;;;;;91.00;74.00;;;;;;;;5095337;28;8783;-70
2022/01/27 08:36:57;;;;;;;;;89.75;67.75;;;;;;;;5083908;28;10902;-70
2022/01/27 08:39:23;;;;;;;;;88.75;69.00;;;;;;;;5093010;28;9912;-70
2022/01/27 08:41:48;;;;;;;;;82.75;62.50;;;;;;;;5095146;28;8928;-70
2022/01/27 08:44:14;;;;;;;;;88.33;67.00;;;;;;;;5092412;28;8846;-70
2022/01/27 08:46:39;;;;;;;;;77.67;62.00;;;;;;;;5085579;28;8828;-70
2022/01/27 08:49:05;;;;;;;;;86.67;66.67;;;;;;;;5088115;28;11607;-70
2022/01/27 08:51:32;;;;;;;;;92.50;70.50;;;;;;;;5094256;28;12422;-69
2022/01/27 08:53:57;;;;;;;;;82.25;64.75;;;;;;;;5094395;28;8778;-70
2022/01/27 08:56:23;;;;;;;;;87.00;66.75;;;;;;;;5092645;28;9019;-70
2022/01/27 08:58:49;;;;;;;;;75.75;61.75;;;;;;;;5088065;28;8909;-71
2022/01/27 09:01:15;;;;;;;;;79.50;60.25;;;;;;;;5093275;28;8805;-70
2022/01/27 09:03:40;;;;;;;;;87.00;68.50;;;;;;;;5093134;28;8943;-71
2022/01/27 09:06:06;;;;;;;;;83.50;64.75;;;;;;;;5094756;28;8802;-70
2022/01/27 09:08:31;;;;;;;;;93.67;75.00;;;;;;;;5098575;28;8829;-70
2022/01/27 09:10:56;;;;;;;;;87.67;67.33;;;;;;;;5101021;28;9912;-70
2022/01/27 09:13:22;;;;;;;;;78.67;60.67;;;;;;;;5093081;28;12379;-70
2022/01/27 09:15:49;;;;;;;;;89.25;69.50;;;;;;;;5084102;28;8878;-70
2022/01/27 09:18:15;;;;;;;;;90.50;70.75;;;;;;;;5103031;28;8799;-70
2022/01/27 09:20:40;;;;;;;;;88.00;63.50;;;;;;;;5088707;28;8890;-70
2022/01/27 09:23:12;;;;;;;;;77.50;56.50;;;;;;;;5097735;28;8828;-70
2022/01/27 09:25:43;;;;;;;;;67.00;48.75;;;;;;;;5092659;28;8821;-70
2022/01/27 09:28:08;;;;;;;;;83.75;61.25;;;;;;;;5096350;28;8818;-70
2022/01/27 09:30:33;;;;;;;;;84.25;67.75;;;;;;;;5102364;28;8890;-70
2022/01/27 09:32:59;;;;;;;;;77.67;58.33;;;;;;;;5101920;28;8841;-71
2022/01/27 09:35:24;;;;;;;;;83.33;65.67;;;;;;;;5096058;28;8941;-71
2022/01/27 09:37:50;;;;;;;;;89.75;67.25;;;;;;;;5097556;28;12411;-70
2022/01/27 09:40:19;;;;;;;;;91.25;69.50;;;;;;;;5095574;28;8797;-69
2022/01/27 09:42:49;;;;;;;;;93.25;72.00;;;;;;;;5097226;28;9729;-70
2022/01/27 09:45:15;;;;;;;;;89.00;68.25;;;;;;;;5096930;28;8801;-70
2022/01/27 09:47:42;;;;;;;;;90.25;69.00;;;;;;;;5096784;28;8841;-70
2022/01/27 09:52:40;;;;;;;;;81.00;62.75;;;;;;;;5097651;28;8824;-70
2022/01/27 09:55:05;;;;;;;;;85.00;65.67;;;;;;;;5097191;28;8801;-70
2022/01/27 09:57:30;;;;;;;;;73.25;57.75;;;;;;;;5096953;28;9128;-70
2022/01/27 09:59:56;;;;;;;;;87.33;69.67;;;;;;;;5094548;28;8834;-70
2022/01/27 10:02:21;;;;;;;;;82.00;63.33;;;;;;;;5095696;28;8840;-70
2022/01/27 10:04:47;;;;;;;;;92.50;69.50;;;;;;;;5088444;28;8859;-70
2022/01/27 10:07:15;;;;;;;;;84.00;68.67;;;;;;;;5084351;28;8805;-71
2022/01/27 10:09:54;;;;;;;;;82.00;63.75;;;;;;;;5096819;28;11560;-70
2022/01/27 10:12:23;;;;;;;;;87.75;66.25;;;;;;;;5083475;28;9751;-71
2022/01/27 10:14:56;;;;;;;;;89.75;68.50;;;;;;;;5082767;28;9766;-70
2022/01/27 10:17:21;;;;;;;;;75.00;57.00;;;;;;;;5097232;28;8813;-70
2022/01/27 10:19:52;;;;;;;;;83.67;64.33;;;;;;;;5087950;28;8824;-70
2022/01/27 10:22:17;;;;;;;;;88.25;69.25;;;;;;;;5085905;28;12104;-70
2022/01/27 10:24:44;;;;;;;;;85.33;65.67;;;;;;;;5102270;28;8937;-70
2022/01/27 10:27:17;;;;;;;;;84.25;65.00;;;;;;;;5094621;28;10998;-70
2022/01/27 10:32:35;;;;;;;;;88.75;68.25;;;;;;;;5095938;28;8899;-70
2022/01/27 10:35:01;;;;;;;;;81.50;61.50;;;;;;;;5092071;28;8914;-70
2022/01/27 10:37:27;;;;;;;;;90.75;69.00;;;;;;;;5096615;28;8820;-70
2022/01/27 10:39:52;;;;;;;;;80.75;61.25;;;;;;;;5096185;28;9760;-70
2022/01/27 10:42:21;;;;;;;;;81.67;64.33;;;;;;;;5094733;28;8996;-70
2022/01/27 10:44:54;;;;;;;;;89.75;67.75;;;;;;;;5092728;28;9786;-71
2022/01/27 10:47:23;;;;;;;;;86.75;66.25;;;;;;;;5096683;28;8863;-71
2022/01/27 10:50:04;;;;;;;;;92.25;69.25;;;;;;;;5095985;28;8858;-71
2022/01/27 10:52:37;;;;;;;;;86.50;66.00;;;;;;;;5095048;28;8766;-70
2022/01/27 10:55:11;;;;;;;;;87.75;69.75;;;;;;;;5083703;28;8876;-71
2022/01/27 10:57:36;;;;;;;;;86.25;64.75;;;;;;;;5094079;28;8920;-71
2022/01/27 11:00:04;;;;;;;;;86.50;67.00;;;;;;;;5086433;28;9005;-70
2022/01/27 11:02:30;;;;;;;;;79.75;61.25;;;;;;;;5094328;28;8794;-70
2022/01/27 11:04:55;;;;;;;;;89.33;69.33;;;;;;;;5094805;28;8810;-70
2022/01/27 11:07:24;;;;;;;;;87.75;64.75;;;;;;;;5096317;28;8860;-69
2022/01/27 11:09:50;;;;;;;;;91.00;71.75;;;;;;;;5095236;28;8816;-70
2022/01/27 11:12:18;;;;;;;;;77.25;61.00;;;;;;;;5094765;28;8817;-70
2022/01/27 11:14:47;;;;;;;;;83.75;66.25;;;;;;;;5094726;28;8829;-70
2022/01/27 11:17:17;;;;;;;;;85.50;64.50;;;;;;;;5096371;28;8841;-70
2022/01/27 11:27:30;;;;;;;;;82.00;65.40;;;;;;;;5096459;28;8836;-70
2022/01/27 11:30:08;;;;;;;;;83.00;64.00;;;;;;;;5096292;28;8778;-72
2022/01/27 11:32:35;;;;;;;;;89.75;70.25;;;;;;;;5081425;28;11579;-70
2022/01/27 11:35:01;;;;;;;;;89.25;69.75;;;;;;;;5094960;28;8790;-70
2022/01/27 11:37:33;;;;;;;;;87.00;67.25;;;;;;;;5094641;28;8849;-70
2022/01/27 11:40:05;;;;;;;;;78.50;60.00;;;;;;;;5094999;28;8770;-70
2022/01/27 11:42:37;;;;;;;;;88.25;65.50;;;;;;;;5079182;28;9745;-70
2022/01/27 11:45:21;;;;;;;;;88.20;71.60;;;;;;;;5093411;28;11571;-70
2022/01/27 11:47:53;;;;;;;;;91.25;73.75;;;;;;;;5095590;28;8846;-70
2022/01/27 11:50:35;;;;;;;;;87.67;71.00;;;;;;;;5086299;28;8789;-70
2022/01/27 11:53:01;;;;;;;;;92.40;74.60;;;;;;;;5095864;28;8778;-70
2022/01/27 11:55:26;;;;;;;;;97.50;81.00;;;;;;;;5095275;28;8751;-70
2022/01/27 11:57:53;;;;;;;;;95.25;78.75;;;;;;;;5094751;28;11932;-70
2022/01/27 12:00:19;;;;;;;;;91.80;78.40;;;;;;;;5082593;28;8862;-71
2022/01/27 12:03:03;;;;;;;;;97.40;85.40;;;;;;;;5094828;28;8794;-70
2022/01/27 12:05:30;;;;;;;;;97.67;89.00;;;;;;;;5095822;28;8790;-70
2022/01/27 12:08:14;;;;;;;;;99.00;90.20;;;;;;;;5095446;28;8847;-71
2022/01/27 12:10:46;;;;;;;;;92.60;78.40;;;;;;;;5094327;28;8798;-70
2022/01/27 12:13:24;;;;;;;;;101.00;94.75;;;;;;;;5093633;28;8825;-71
2022/01/27 12:16:08;;;;;;;;;114.20;108.80;;;;;;;;5097115;28;8801;-70
2022/01/27 12:18:35;;;;;;;;;113.60;107.20;;;;;;;;5093488;28;8912;-70
2022/01/27 12:21:20;;;;;;;;;96.25;87.00;;;;;;;;5090868;28;8818;-70
2022/01/27 12:24:04;;;;;;;;;96.00;83.00;;;;;;;;5093349;28;8758;-70
2022/01/27 12:26:49;;;;;;;;;86.75;72.00;;;;;;;;5094214;28;8887;-70
2022/01/27 12:29:22;;;;;;;;;92.25;77.25;;;;;;;;5095363;28;8786;-71
2022/01/27 12:31:48;;;;;;;;;92.00;78.25;;;;;;;;5093801;28;8915;-70
2022/01/27 12:34:14;;;;;;;;;85.75;69.25;;;;;;;;5086481;28;8753;-70
2022/01/27 12:36:39;;;;;;;;;72.67;58.00;;;;;;;;5094054;28;8891;-70
2022/01/27 12:39:05;;;;;;;;;68.50;52.50;;;;;;;;5089688;28;8986;-70
2022/01/27 12:41:37;;;;;;;;;71.00;56.60;;;;;;;;5093721;28;9691;-70
2022/01/27 12:44:09;;;;;;;;;75.75;58.50;;;;;;;;5095623;28;8883;-70
2022/01/27 12:46:35;;;;;;;;;65.00;45.60;;;;;;;;5095199;28;8878;-70
2022/01/27 12:49:02;;;;;;;;;80.20;60.20;;;;;;;;5100714;27;8860;-70
2022/01/27 12:51:27;;;;;;;;;77.20;61.40;;;;;;;;5093965;28;8782;-70
2022/01/27 12:53:59;;;;;;;;;78.75;59.75;;;;;;;;5095892;28;8860;-70
2022/01/27 12:56:25;;;;;;;;;74.50;58.25;;;;;;;;5095668;28;8786;-70
2022/01/27 12:58:50;;;;;;;;;72.00;57.00;;;;;;;;5089407;28;8878;-70
2022/01/27 13:01:16;;;;;;;;;69.00;52.50;;;;;;;;5094082;28;8936;-70
2022/01/27 13:03:58;;;;;;;;;62.00;48.50;;;;;;;;5095209;28;8909;-70
2022/01/27 13:06:30;;;;;;;;;77.50;58.75;;;;;;;;5095101;28;8778;-70
2022/01/27 13:09:14;;;;;;;;;70.75;53.25;;;;;;;;5093374;28;8940;-70
2022/01/27 13:11:40;;;;;;;;;71.25;56.50;;;;;;;;5094210;28;8798;-70
2022/01/27 13:14:08;;;;;;;;;64.75;50.50;;;;;;;;5095113;28;8770;-70
2022/01/27 13:16:42;;;;;;;;;78.25;61.00;;;;;;;;5094386;28;8810;-70
2022/01/27 13:19:19;;;;;;;;;80.00;61.50;;;;;;;;5089982;28;8782;-70
2022/01/27 13:21:49;;;;;;;;;76.00;60.00;;;;;;;;5092712;28;8794;-70
2022/01/27 13:24:17;;;;;;;;;77.00;60.75;;;;;;;;5095206;28;8790;-70
2022/01/27 13:26:46;;;;;;;;;78.50;63.00;;;;;;;;5093018;28;11783;-70
2022/01/27 13:29:17;;;;;;;;;71.00;53.75;;;;;;;;5094488;28;8800;-70
2022/01/27 13:31:44;;;;;;;;;62.75;48.25;;;;;;;;5080652;28;8802;-70
2022/01/27 13:34:09;;;;;;;;;53.50;41.25;;;;;;;;5091311;28;8800;-69
2022/01/27 13:36:36;;;;;;;;;37.75;34.75;;;;;;;;5091418;28;9592;-71
2022/01/27 13:41:29;;;;;;;;;57.67;44.67;;;;;;;;5089849;28;8933;-70
2022/01/27 13:44:02;;;;;;;;;44.25;36.75;;;;;;;;5093131;28;8960;-70
2022/01/27 13:46:36;;;;;;;;;67.00;51.75;;;;;;;;5087649;28;8813;-70
2022/01/27 13:49:06;;;;;;;;;68.75;56.00;;;;;;;;5093898;28;8922;-70
2022/01/27 13:51:32;;;;;;;;;65.75;52.00;;;;;;;;5090214;28;8809;-70
2022/01/27 13:53:58;;;;;;;;;66.00;52.33;;;;;;;;5093064;28;8806;-70
2022/01/27 13:56:24;;;;;;;;;67.75;54.25;;;;;;;;5093141;28;11027;-71
2022/01/27 13:59:09;;;;;;;;;60.50;48.00;;;;;;;;5093624;28;8806;-70
2022/01/27 14:01:34;;;;;;;;;62.00;49.25;;;;;;;;5094409;28;8738;-70
2022/01/27 14:04:00;;;;;;;;;71.50;56.75;;;;;;;;5094369;28;8786;-69
2022/01/27 14:06:25;;;;;;;;;68.00;54.75;;;;;;;;5092495;28;8798;-70
2022/01/27 14:08:56;;;;;;;;;64.25;48.00;;;;;;;;5094326;28;8848;-70
2022/01/27 14:11:32;;;;;;;;;76.25;61.00;;;;;;;;5092490;28;8907;-70
2022/01/27 14:13:59;;;;;;;;;66.75;53.75;;;;;;;;5092241;28;8818;-70
2022/01/27 14:16:27;;;;;;;;;75.50;57.25;;;;;;;;5094316;28;8738;-70
2022/01/27 14:18:53;;;;;;;;;78.00;58.75;;;;;;;;5096667;28;8816;-70
2022/01/27 14:21:19;;;;;;;;;93.00;78.33;;;;;;;;5092721;28;8822;-70
2022/01/27 14:23:56;;;;;;;;;74.25;57.25;;;;;;;;5097184;28;8769;-70
2022/01/27 14:28:52;;;;;;;;;88.75;68.75;;;;;;;;5096631;28;9671;-70
2022/01/27 14:31:18;;;;;;;;;89.75;78.25;;;;;;;;5097204;28;9719;-70
2022/01/27 14:33:43;;;;;;;;;84.00;68.20;;;;;;;;5095596;28;8785;-70
2022/01/27 14:36:09;;;;;;;;;87.67;67.33;;;;;;;;5084003;28;9509;-69
2022/01/27 14:38:35;;;;;;;;;84.50;66.00;;;;;;;;5096747;28;8894;-70
2022/01/27 14:41:00;;;;;;;;;85.00;65.67;;;;;;;;5096383;28;8892;-70
2022/01/27 14:43:29;;;;;;;;;78.00;60.00;;;;;;;;5096831;28;8990;-70
2022/01/27 14:45:54;;;;;;;;;78.25;61.00;;;;;;;;5095679;28;8758;-70
2022/01/27 14:48:20;;;;;;;;;75.75;59.50;;;;;;;;5095967;28;8849;-69
2022/01/27 14:50:45;;;;;;;;;87.50;70.50;;;;;;;;5095592;28;8848;-70
2022/01/27 14:53:21;;;;;;;;;75.75;58.25;;;;;;;;5096779;28;8825;-70
2022/01/27 14:55:47;;;;;;;;;56.75;44.25;;;;;;;;5095959;28;8892;-70
2022/01/27 14:58:12;;;;;;;;;82.25;65.00;;;;;;;;5096726;28;8805;-70
2022/01/27 15:00:38;;;;;;;;;80.50;62.75;;;;;;;;5096382;28;8833;-70
2022/01/27 15:03:04;;;;;;;;;79.75;60.75;;;;;;;;5099300;28;8817;-69
2022/01/27 15:05:29;;;;;;;;;84.00;65.75;;;;;;;;5094806;28;8792;-70
2022/01/27 15:07:55;;;;;;;;;80.67;61.33;;;;;;;;5106086;28;8809;-71
2022/01/27 15:10:22;;;;;;;;;81.25;64.00;;;;;;;;5096875;28;8813;-70
2022/01/27 15:12:47;;;;;;;;;82.33;64.33;;;;;;;;5096449;28;8832;-70
2022/01/27 15:20:42;;;;;;;;;76.75;60.75;;;;;;;;5086234;28;8798;-70
2022/01/27 15:23:08;;;;;;;;;90.67;74.67;;;;;;;;5095648;28;8854;-69
2022/01/27 15:25:33;;;;;;;;;79.25;59.50;;;;;;;;5096323;28;8820;-70
2022/01/27 15:27:59;;;;;;;;;82.00;64.00;;;;;;;;5095659;28;8857;-70
2022/01/27 15:30:25;;;;;;;;;75.00;58.67;;;;;;;;5094183;28;8816;-70
2022/01/27 15:32:51;;;;;;;;;77.40;60.00;;;;;;;;5095995;28;8793;-70
2022/01/27 15:35:16;;;;;;;;;90.00;74.67;;;;;;;;5096081;28;8805;-70